sensor_id;sensor_type;location;lat;lon;timestamp;pressure;altitude;pressure_sealevel;temperature
80246;BMP280;69558;39.208;-77.226;2023-06-14T00:02:11;99100.19;;;22.41
80246;BMP280;69558;39.208;-77.226;2023-06-14T00:04:37;99066.88;;;22.19
80246;BMP280;69558;39.208;-77.226;2023-06-14T00:07:05;99103.41;;;22.43
80246;BMP280;69558;39.208;-77.226;2023-06-14T00:09:33;99055.47;;;22.18
80246;BMP280;69558;39.208;-77.226;2023-06-14T00:11:59;99094.69;;;22.43
80246;BMP280;69558;39.208;-77.226;2023-06-14T00:14:25;99101.53;;;22.44
80246;BMP280;69558;39.208;-77.226;2023-06-14T00:16:51;99093.88;;;22.42
80246;BMP280;69558;39.208;-77.226;2023-06-14T00:19:24;99102.63;;;22.43
80246;BMP280;69558;39.208;-77.226;2023-06-14T00:21:51;99105.25;;;22.43
80246;BMP280;69558;39.208;-77.226;2023-06-14T00:24:21;99106.84;;;22.44
80246;BMP280;69558;39.208;-77.226;2023-06-14T00:26:48;99097.34;;;22.43
80246;BMP280;69558;39.208;-77.226;2023-06-14T00:29:16;99096.53;;;22.42
80246;BMP280;69558;39.208;-77.226;2023-06-14T00:31:44;99094.38;;;22.39
80246;BMP280;69558;39.208;-77.226;2023-06-14T00:34:11;99062.16;;;22.21
80246;BMP280;69558;39.208;-77.226;2023-06-14T00:36:37;99095.91;;;22.35
80246;BMP280;69558;39.208;-77.226;2023-06-14T00:39:03;99075.97;;;22.28
80246;BMP280;69558;39.208;-77.226;2023-06-14T00:41:30;99061.88;;;22.22
80246;BMP280;69558;39.208;-77.226;2023-06-14T00:43:56;99091.47;;;22.41
80246;BMP280;69558;39.208;-77.226;2023-06-14T00:46:24;99084.56;;;22.40
80246;BMP280;69558;39.208;-77.226;2023-06-14T00:48:50;99075.88;;;22.39
80246;BMP280;69558;39.208;-77.226;2023-06-14T00:51:21;99067.06;;;22.34
80246;BMP280;69558;39.208;-77.226;2023-06-14T00:53:48;99046.91;;;22.28
80246;BMP280;69558;39.208;-77.226;2023-06-14T00:56:14;99051.22;;;22.34
80246;BMP280;69558;39.208;-77.226;2023-06-14T00:58:42;99047.47;;;22.30
80246;BMP280;69558;39.208;-77.226;2023-06-14T01:01:08;99048.34;;;22.35
80246;BMP280;69558;39.208;-77.226;2023-06-14T01:03:34;99030.91;;;22.17
80246;BMP280;69558;39.208;-77.226;2023-06-14T01:12:04;99061.47;;;22.30
80246;BMP280;69558;39.208;-77.226;2023-06-14T01:14:32;99080.56;;;22.37
80246;BMP280;69558;39.208;-77.226;2023-06-14T01:16:59;99060.59;;;22.25
80246;BMP280;69558;39.208;-77.226;2023-06-14T01:19:26;99080.69;;;22.42
80246;BMP280;69558;39.208;-77.226;2023-06-14T01:21:56;99073.56;;;22.43
80246;BMP280;69558;39.208;-77.226;2023-06-14T01:24:22;99075.59;;;22.41
80246;BMP280;69558;39.208;-77.226;2023-06-14T01:26:56;99066.03;;;22.35
80246;BMP280;69558;39.208;-77.226;2023-06-14T01:29:26;99080.34;;;22.39
80246;BMP280;69558;39.208;-77.226;2023-06-14T01:31:54;99073.25;;;22.39
80246;BMP280;69558;39.208;-77.226;2023-06-14T01:34:20;99080.88;;;22.41
80246;BMP280;69558;39.208;-77.226;2023-06-14T01:36:47;99080.88;;;22.41
80246;BMP280;69558;39.208;-77.226;2023-06-14T01:39:14;99079.84;;;22.42
80246;BMP280;69558;39.208;-77.226;2023-06-14T01:41:45;99069.41;;;22.30
80246;BMP280;69558;39.208;-77.226;2023-06-14T01:44:14;99081.94;;;22.40
80246;BMP280;69558;39.208;-77.226;2023-06-14T01:46:42;99080.09;;;22.40
80246;BMP280;69558;39.208;-77.226;2023-06-14T01:49:08;99085.69;;;22.44
80246;BMP280;69558;39.208;-77.226;2023-06-14T01:51:34;99091.78;;;22.44
80246;BMP280;69558;39.208;-77.226;2023-06-14T01:54:01;99058.22;;;22.23
80246;BMP280;69558;39.208;-77.226;2023-06-14T01:56:27;99082.72;;;22.40
80246;BMP280;69558;39.208;-77.226;2023-06-14T01:58:53;99101.06;;;22.47
80246;BMP280;69558;39.208;-77.226;2023-06-14T02:01:19;99089.09;;;22.39
80246;BMP280;69558;39.208;-77.226;2023-06-14T02:03:46;99097.53;;;22.41
80246;BMP280;69558;39.208;-77.226;2023-06-14T02:06:14;99088.44;;;22.32
80246;BMP280;69558;39.208;-77.226;2023-06-14T02:08:41;99113.72;;;22.45
80246;BMP280;69558;39.208;-77.226;2023-06-14T02:11:08;99107.38;;;22.46
80246;BMP280;69558;39.208;-77.226;2023-06-14T02:13:34;99110.03;;;22.46
80246;BMP280;69558;39.208;-77.226;2023-06-14T02:16:00;99087.66;;;22.32
80246;BMP280;69558;39.208;-77.226;2023-06-14T02:18:26;99085.81;;;22.32
80246;BMP280;69558;39.208;-77.226;2023-06-14T02:20:53;99097.84;;;22.45
80246;BMP280;69558;39.208;-77.226;2023-06-14T02:23:19;99087.56;;;22.43
80246;BMP280;69558;39.208;-77.226;2023-06-14T02:25:45;99085.44;;;22.45
80246;BMP280;69558;39.208;-77.226;2023-06-14T02:28:12;99070.00;;;22.37
80246;BMP280;69558;39.208;-77.226;2023-06-14T02:30:37;99062.75;;;22.28
80246;BMP280;69558;39.208;-77.226;2023-06-14T02:33:04;99093.38;;;22.45
80246;BMP280;69558;39.208;-77.226;2023-06-14T02:35:32;99095.22;;;22.45
80246;BMP280;69558;39.208;-77.226;2023-06-14T02:38:03;99099.47;;;22.46
80246;BMP280;69558;39.208;-77.226;2023-06-14T02:40:29;99108.19;;;22.46
80246;BMP280;69558;39.208;-77.226;2023-06-14T02:42:55;99092.34;;;22.46
80246;BMP280;69558;39.208;-77.226;2023-06-14T02:45:22;99079.63;;;22.43
80246;BMP280;69558;39.208;-77.226;2023-06-14T02:47:48;99085.22;;;22.47
80246;BMP280;69558;39.208;-77.226;2023-06-14T02:50:15;99075.13;;;22.44
80246;BMP280;69558;39.208;-77.226;2023-06-14T02:52:41;99080.41;;;22.44
80246;BMP280;69558;39.208;-77.226;2023-06-14T02:55:07;99088.59;;;22.42
80246;BMP280;69558;39.208;-77.226;2023-06-14T02:57:33;99077.13;;;22.37
80246;BMP280;69558;39.208;-77.226;2023-06-14T02:59:59;99081.94;;;22.40
80246;BMP280;69558;39.208;-77.226;2023-06-14T03:02:26;99088.09;;;22.45
80246;BMP280;69558;39.208;-77.226;2023-06-14T03:04:52;99078.53;;;22.39
80246;BMP280;69558;39.208;-77.226;2023-06-14T03:07:17;99076.19;;;22.43
80246;BMP280;69558;39.208;-77.226;2023-06-14T03:09:45;99085.97;;;22.42
80246;BMP280;69558;39.208;-77.226;2023-06-14T03:12:12;99085.69;;;22.44
80246;BMP280;69558;39.208;-77.226;2023-06-14T03:14:38;99075.59;;;22.41
80246;BMP280;69558;39.208;-77.226;2023-06-14T03:17:05;99063.63;;;22.33
80246;BMP280;69558;39.208;-77.226;2023-06-14T03:19:31;99067.69;;;22.41
80246;BMP280;69558;39.208;-77.226;2023-06-14T03:21:57;99073.75;;;22.41
80246;BMP280;69558;39.208;-77.226;2023-06-14T03:24:26;99067.94;;;22.39
80246;BMP280;69558;39.208;-77.226;2023-06-14T03:26:57;99063.91;;;22.37
80246;BMP280;69558;39.208;-77.226;2023-06-14T03:29:23;99067.16;;;22.39
80246;BMP280;69558;39.208;-77.226;2023-06-14T03:32:00;99066.34;;;22.38
80246;BMP280;69558;39.208;-77.226;2023-06-14T03:34:27;99060.47;;;22.36
80246;BMP280;69558;39.208;-77.226;2023-06-14T03:36:53;99059.22;;;22.39
80246;BMP280;69558;39.208;-77.226;2023-06-14T03:39:19;99049.91;;;22.36
80246;BMP280;69558;39.208;-77.226;2023-06-14T03:41:47;99022.53;;;22.21
80246;BMP280;69558;39.208;-77.226;2023-06-14T03:44:17;99045.22;;;22.38
80246;BMP280;69558;39.208;-77.226;2023-06-14T03:46:46;99039.94;;;22.38
80246;BMP280;69558;39.208;-77.226;2023-06-14T03:49:12;99043.91;;;22.41
80246;BMP280;69558;39.208;-77.226;2023-06-14T03:51:39;99029.56;;;22.37
80246;BMP280;69558;39.208;-77.226;2023-06-14T03:54:05;99019.75;;;22.32
80246;BMP280;69558;39.208;-77.226;2023-06-14T03:56:32;99041.53;;;22.39
80246;BMP280;69558;39.208;-77.226;2023-06-14T03:58:58;99036.25;;;22.39
80246;BMP280;69558;39.208;-77.226;2023-06-14T04:01:24;99028.78;;;22.36
80246;BMP280;69558;39.208;-77.226;2023-06-14T04:03:56;99028.31;;;22.39
80246;BMP280;69558;39.208;-77.226;2023-06-14T04:06:23;99019.59;;;22.39
80246;BMP280;69558;39.208;-77.226;2023-06-14T04:08:51;99026.66;;;22.33
80246;BMP280;69558;39.208;-77.226;2023-06-14T04:11:17;99021.59;;;22.32
80246;BMP280;69558;39.208;-77.226;2023-06-14T04:13:44;99022.97;;;22.34
80246;BMP280;69558;39.208;-77.226;2023-06-14T04:16:11;99007.75;;;22.25
80246;BMP280;69558;39.208;-77.226;2023-06-14T04:18:37;99025.84;;;22.33
80246;BMP280;69558;39.208;-77.226;2023-06-14T04:21:03;99011.22;;;22.25
80246;BMP280;69558;39.208;-77.226;2023-06-14T04:23:29;99015.69;;;22.25
80246;BMP280;69558;39.208;-77.226;2023-06-14T04:25:55;99018.97;;;22.32
80246;BMP280;69558;39.208;-77.226;2023-06-14T04:28:27;99016.03;;;22.28
80246;BMP280;69558;39.208;-77.226;2023-06-14T04:30:53;99019.69;;;22.27
80246;BMP280;69558;39.208;-77.226;2023-06-14T04:33:19;99020.00;;;22.31
80246;BMP280;69558;39.208;-77.226;2023-06-14T04:35:45;99003.84;;;22.27
80246;BMP280;69558;39.208;-77.226;2023-06-14T04:38:13;99021.44;;;22.38
80246;BMP280;69558;39.208;-77.226;2023-06-14T04:40:39;99018.78;;;22.38
80246;BMP280;69558;39.208;-77.226;2023-06-14T04:43:09;99005.19;;;22.30
80246;BMP280;69558;39.208;-77.226;2023-06-14T04:45:38;98993.28;;;22.27
80246;BMP280;69558;39.208;-77.226;2023-06-14T04:48:05;99000.47;;;22.32
80246;BMP280;69558;39.208;-77.226;2023-06-14T04:50:32;99013.00;;;22.41
80246;BMP280;69558;39.208;-77.226;2023-06-14T04:52:59;98997.38;;;22.40
80246;BMP280;69558;39.208;-77.226;2023-06-14T04:55:25;98994.50;;;22.41
80246;BMP280;69558;39.208;-77.226;2023-06-14T04:57:52;98987.09;;;22.38
80246;BMP280;69558;39.208;-77.226;2023-06-14T05:00:21;98977.25;;;22.34
80246;BMP280;69558;39.208;-77.226;2023-06-14T05:02:49;98994.00;;;22.44
80246;BMP280;69558;39.208;-77.226;2023-06-14T05:05:16;98992.44;;;22.43
80246;BMP280;69558;39.208;-77.226;2023-06-14T05:07:42;98985.78;;;22.41
80246;BMP280;69558;39.208;-77.226;2023-06-14T05:10:09;98982.09;;;22.42
80246;BMP280;69558;39.208;-77.226;2023-06-14T05:12:35;98986.38;;;22.43
80246;BMP280;69558;39.208;-77.226;2023-06-14T05:15:02;98980.50;;;22.41
80246;BMP280;69558;39.208;-77.226;2023-06-14T05:17:29;98983.41;;;22.39
80246;BMP280;69558;39.208;-77.226;2023-06-14T05:19:55;98971.25;;;22.38
80246;BMP280;69558;39.208;-77.226;2023-06-14T05:22:23;98984.72;;;22.42
80246;BMP280;69558;39.208;-77.226;2023-06-14T05:24:50;98971.25;;;22.38
80246;BMP280;69558;39.208;-77.226;2023-06-14T05:27:19;98969.41;;;22.39
80246;BMP280;69558;39.208;-77.226;2023-06-14T05:29:45;98971.75;;;22.40
80246;BMP280;69558;39.208;-77.226;2023-06-14T05:32:11;98976.00;;;22.41
80246;BMP280;69558;39.208;-77.226;2023-06-14T05:34:37;98977.31;;;22.39
80246;BMP280;69558;39.208;-77.226;2023-06-14T05:37:03;98977.31;;;22.39
80246;BMP280;69558;39.208;-77.226;2023-06-14T05:39:29;98975.47;;;22.39
80246;BMP280;69558;39.208;-77.226;2023-06-14T05:41:55;98973.59;;;22.40
80246;BMP280;69558;39.208;-77.226;2023-06-14T05:44:21;98976.00;;;22.41
80246;BMP280;69558;39.208;-77.226;2023-06-14T05:46:47;98950.78;;;22.29
80246;BMP280;69558;39.208;-77.226;2023-06-14T05:49:13;98972.56;;;22.41
80246;BMP280;69558;39.208;-77.226;2023-06-14T05:51:39;98967.28;;;22.41
80246;BMP280;69558;39.208;-77.226;2023-06-14T05:54:05;98964.63;;;22.41
80246;BMP280;69558;39.208;-77.226;2023-06-14T05:56:31;98965.97;;;22.38
80246;BMP280;69558;39.208;-77.226;2023-06-14T05:59:00;98967.25;;;22.36
80246;BMP280;69558;39.208;-77.226;2023-06-14T06:01:26;98930.81;;;22.16
80246;BMP280;69558;39.208;-77.226;2023-06-14T06:03:53;98968.59;;;22.38
80246;BMP280;69558;39.208;-77.226;2023-06-14T06:06:19;98968.81;;;22.37
80246;BMP280;69558;39.208;-77.226;2023-06-14T06:08:45;98959.31;;;22.36
80246;BMP280;69558;39.208;-77.226;2023-06-14T06:11:11;98954.03;;;22.36
80246;BMP280;69558;39.208;-77.226;2023-06-14T06:13:37;98940.19;;;22.29
80246;BMP280;69558;39.208;-77.226;2023-06-14T06:16:05;98943.72;;;22.34
80246;BMP280;69558;39.208;-77.226;2023-06-14T06:18:31;98949.78;;;22.35
80246;BMP280;69558;39.208;-77.226;2023-06-14T06:20:57;98947.94;;;22.35
80246;BMP280;69558;39.208;-77.226;2023-06-14T06:23:23;98951.38;;;22.36
80246;BMP280;69558;39.208;-77.226;2023-06-14T06:25:49;98938.66;;;22.33
80246;BMP280;69558;39.208;-77.226;2023-06-14T06:28:15;98946.34;;;22.34
80246;BMP280;69558;39.208;-77.226;2023-06-14T06:30:41;98933.06;;;22.29
80246;BMP280;69558;39.208;-77.226;2023-06-14T06:33:07;98939.47;;;22.33
80246;BMP280;69558;39.208;-77.226;2023-06-14T06:35:33;98929.69;;;22.34
80246;BMP280;69558;39.208;-77.226;2023-06-14T06:37:59;98915.88;;;22.27
80246;BMP280;69558;39.208;-77.226;2023-06-14T06:40:26;98935.00;;;22.34
80246;BMP280;69558;39.208;-77.226;2023-06-14T06:42:52;98934.75;;;22.35
80246;BMP280;69558;39.208;-77.226;2023-06-14T06:45:19;98923.38;;;22.35
80246;BMP280;69558;39.208;-77.226;2023-06-14T06:47:45;98921.53;;;22.35
80246;BMP280;69558;39.208;-77.226;2023-06-14T06:50:11;98930.25;;;22.36
80246;BMP280;69558;39.208;-77.226;2023-06-14T06:52:37;98930.25;;;22.36
80246;BMP280;69558;39.208;-77.226;2023-06-14T06:55:03;98929.19;;;22.37
80246;BMP280;69558;39.208;-77.226;2023-06-14T06:57:29;98915.88;;;22.27
80246;BMP280;69558;39.208;-77.226;2023-06-14T06:59:55;98916.50;;;22.34
80246;BMP280;69558;39.208;-77.226;2023-06-14T07:02:21;98915.94;;;22.32
80246;BMP280;69558;39.208;-77.226;2023-06-14T07:04:47;98901.63;;;22.28
80246;BMP280;69558;39.208;-77.226;2023-06-14T07:07:13;98909.06;;;22.31
80246;BMP280;69558;39.208;-77.226;2023-06-14T07:09:39;98894.53;;;22.28
80246;BMP280;69558;39.208;-77.226;2023-06-14T07:12:07;98899.28;;;22.31
80246;BMP280;69558;39.208;-77.226;2023-06-14T07:14:33;98891.38;;;22.31
80246;BMP280;69558;39.208;-77.226;2023-06-14T07:16:59;98894.00;;;22.31
80246;BMP280;69558;39.208;-77.226;2023-06-14T07:19:26;98889.53;;;22.32
80246;BMP280;69558;39.208;-77.226;2023-06-14T07:21:52;98872.75;;;22.21
80246;BMP280;69558;39.208;-77.226;2023-06-14T07:24:18;98878.09;;;22.26
80246;BMP280;69558;39.208;-77.226;2023-06-14T07:26:46;98874.16;;;22.29
80246;BMP280;69558;39.208;-77.226;2023-06-14T07:29:14;98867.59;;;22.31
80246;BMP280;69558;39.208;-77.226;2023-06-14T07:31:41;98864.66;;;22.28
80246;BMP280;69558;39.208;-77.226;2023-06-14T07:34:08;98862.56;;;22.30
80246;BMP280;69558;39.208;-77.226;2023-06-14T07:36:34;98862.88;;;22.33
80246;BMP280;69558;39.208;-77.226;2023-06-14T07:38:59;98854.38;;;22.31
80246;BMP280;69558;39.208;-77.226;2023-06-14T07:41:25;98839.53;;;22.25
80246;BMP280;69558;39.208;-77.226;2023-06-14T07:43:52;98847.81;;;22.34
80246;BMP280;69558;39.208;-77.226;2023-06-14T07:46:18;98840.63;;;22.29
80246;BMP280;69558;39.208;-77.226;2023-06-14T07:48:45;98838.28;;;22.33
80246;BMP280;69558;39.208;-77.226;2023-06-14T07:51:11;98841.19;;;22.31
80246;BMP280;69558;39.208;-77.226;2023-06-14T07:53:37;98840.13;;;22.32
80246;BMP280;69558;39.208;-77.226;2023-06-14T07:56:03;98835.41;;;22.34
80246;BMP280;69558;39.208;-77.226;2023-06-14T07:58:29;98815.97;;;22.19
80246;BMP280;69558;39.208;-77.226;2023-06-14T08:00:55;98834.84;;;22.32
80246;BMP280;69558;39.208;-77.226;2023-06-14T08:03:21;98826.88;;;22.27
80246;BMP280;69558;39.208;-77.226;2023-06-14T08:05:48;98812.28;;;22.20
80246;BMP280;69558;39.208;-77.226;2023-06-14T08:08:14;98828.22;;;22.30
80246;BMP280;69558;39.208;-77.226;2023-06-14T08:10:41;98823.97;;;22.29
80246;BMP280;69558;39.208;-77.226;2023-06-14T08:13:07;98806.41;;;22.17
80246;BMP280;69558;39.208;-77.226;2023-06-14T08:15:34;98823.72;;;22.30
80246;BMP280;69558;39.208;-77.226;2023-06-14T08:18:00;98807.78;;;22.20
80246;BMP280;69558;39.208;-77.226;2023-06-14T08:20:26;98822.19;;;22.34
80246;BMP280;69558;39.208;-77.226;2023-06-14T08:22:52;98783.38;;;22.13
80246;BMP280;69558;39.208;-77.226;2023-06-14T08:25:22;98809.47;;;22.31
80246;BMP280;69558;39.208;-77.226;2023-06-14T08:27:48;98783.44;;;22.18
80246;BMP280;69558;39.208;-77.226;2023-06-14T08:30:15;98772.00;;;22.07
80246;BMP280;69558;39.208;-77.226;2023-06-14T08:32:43;98804.94;;;22.27
80246;BMP280;69558;39.208;-77.226;2023-06-14T08:35:09;98803.41;;;22.31
80246;BMP280;69558;39.208;-77.226;2023-06-14T08:37:41;98795.41;;;22.26
80246;BMP280;69558;39.208;-77.226;2023-06-14T08:40:22;98799.44;;;22.28
80246;BMP280;69558;39.208;-77.226;2023-06-14T08:42:54;98788.72;;;22.18
80246;BMP280;69558;39.208;-77.226;2023-06-14T08:45:23;98804.94;;;22.27
80246;BMP280;69558;39.208;-77.226;2023-06-14T08:47:51;98765.41;;;22.05
80246;BMP280;69558;39.208;-77.226;2023-06-14T08:50:24;98804.13;;;22.26
80246;BMP280;69558;39.208;-77.226;2023-06-14T08:52:57;98816.56;;;22.26
80246;BMP280;69558;39.208;-77.226;2023-06-14T08:55:28;98804.38;;;22.25
80246;BMP280;69558;39.208;-77.226;2023-06-14T08:57:56;98802.31;;;22.27
80246;BMP280;69558;39.208;-77.226;2023-06-14T09:00:27;98798.06;;;22.26
80246;BMP280;69558;39.208;-77.226;2023-06-14T09:02:58;98801.19;;;22.23
80246;BMP280;69558;39.208;-77.226;2023-06-14T09:05:27;98812.59;;;22.23
80246;BMP280;69558;39.208;-77.226;2023-06-14T09:07:55;98809.94;;;22.23
80246;BMP280;69558;39.208;-77.226;2023-06-14T09:10:27;98807.31;;;22.23
80246;BMP280;69558;39.208;-77.226;2023-06-14T09:12:54;98807.03;;;22.25
80246;BMP280;69558;39.208;-77.226;2023-06-14T09:15:20;98798.03;;;22.21
80246;BMP280;69558;39.208;-77.226;2023-06-14T09:17:47;98785.75;;;22.09
80246;BMP280;69558;39.208;-77.226;2023-06-14T09:20:13;98807.03;;;22.25
80246;BMP280;69558;39.208;-77.226;2023-06-14T09:22:44;98794.78;;;22.13
80246;BMP280;69558;39.208;-77.226;2023-06-14T09:25:10;98787.59;;;22.09
80246;BMP280;69558;39.208;-77.226;2023-06-14T09:27:38;98806.47;;;22.23
80246;BMP280;69558;39.208;-77.226;2023-06-14T09:30:09;98804.88;;;22.22
80246;BMP280;69558;39.208;-77.226;2023-06-14T09:32:39;98800.63;;;22.15
80246;BMP280;69558;39.208;-77.226;2023-06-14T09:35:06;98785.50;;;22.11
80246;BMP280;69558;39.208;-77.226;2023-06-14T09:37:33;98793.94;;;22.13
80246;BMP280;69558;39.208;-77.226;2023-06-14T09:40:00;98777.53;;;22.06
80246;BMP280;69558;39.208;-77.226;2023-06-14T09:42:26;98793.78;;;22.20
80246;BMP280;69558;39.208;-77.226;2023-06-14T09:44:55;98759.25;;;21.99
80246;BMP280;69558;39.208;-77.226;2023-06-14T09:47:22;98788.22;;;22.16
80246;BMP280;69558;39.208;-77.226;2023-06-14T09:49:49;98792.19;;;22.19
80246;BMP280;69558;39.208;-77.226;2023-06-14T09:52:16;98758.44;;;21.99
80246;BMP280;69558;39.208;-77.226;2023-06-14T09:54:45;98786.63;;;22.15
80246;BMP280;69558;39.208;-77.226;2023-06-14T09:57:22;98756.63;;;21.99
80246;BMP280;69558;39.208;-77.226;2023-06-14T09:59:50;98773.41;;;22.15
80246;BMP280;69558;39.208;-77.226;2023-06-14T10:02:31;98741.72;;;21.93
80246;BMP280;69558;39.208;-77.226;2023-06-14T10:07:38;98771.06;;;22.19
80246;BMP280;69558;39.208;-77.226;2023-06-14T10:10:06;98767.56;;;22.13
80246;BMP280;69558;39.208;-77.226;2023-06-14T10:12:32;98769.72;;;22.16
80246;BMP280;69558;39.208;-77.226;2023-06-14T10:14:59;98766.28;;;22.15
80246;BMP280;69558;39.208;-77.226;2023-06-14T10:17:47;98775.25;;;22.14
80246;BMP280;69558;39.208;-77.226;2023-06-14T10:20:26;98756.97;;;22.08
80246;BMP280;69558;39.208;-77.226;2023-06-14T10:23:16;98761.25;;;22.14
80246;BMP280;69558;39.208;-77.226;2023-06-14T10:25:43;98755.16;;;22.13
80246;BMP280;69558;39.208;-77.226;2023-06-14T10:28:18;98768.38;;;22.13
80246;BMP280;69558;39.208;-77.226;2023-06-14T10:31:10;98753.59;;;22.17
80246;BMP280;69558;39.208;-77.226;2023-06-14T10:33:41;98733.66;;;22.00
80246;BMP280;69558;39.208;-77.226;2023-06-14T10:36:27;98748.59;;;22.16
80246;BMP280;69558;39.208;-77.226;2023-06-14T10:39:06;98705.31;;;21.90
80246;BMP280;69558;39.208;-77.226;2023-06-14T10:41:36;98745.59;;;22.07
80246;BMP280;69558;39.208;-77.226;2023-06-14T10:46:41;98756.47;;;22.11
80246;BMP280;69558;39.208;-77.226;2023-06-14T10:49:11;98747.94;;;22.04
80246;BMP280;69558;39.208;-77.226;2023-06-14T10:51:41;98757.50;;;22.10
80246;BMP280;69558;39.208;-77.226;2023-06-14T10:54:14;98740.78;;;21.99
80246;BMP280;69558;39.208;-77.226;2023-06-14T10:59:14;98759.59;;;22.08
80246;BMP280;69558;39.208;-77.226;2023-06-14T11:04:49;98729.06;;;21.90
80246;BMP280;69558;39.208;-77.226;2023-06-14T11:12:47;98763.28;;;22.07
80246;BMP280;69558;39.208;-77.226;2023-06-14T11:15:14;98750.00;;;21.97
80246;BMP280;69558;39.208;-77.226;2023-06-14T11:17:52;98767.50;;;22.08
80246;BMP280;69558;39.208;-77.226;2023-06-14T11:20:19;98733.25;;;21.86
80246;BMP280;69558;39.208;-77.226;2023-06-14T11:22:47;98761.97;;;22.04
80246;BMP280;69558;39.208;-77.226;2023-06-14T11:25:12;98770.41;;;22.06
80246;BMP280;69558;39.208;-77.226;2023-06-14T11:27:39;98774.41;;;22.09
80246;BMP280;69558;39.208;-77.226;2023-06-14T11:30:07;98772.56;;;22.09
80246;BMP280;69558;39.208;-77.226;2023-06-14T11:32:35;98775.44;;;22.08
80246;BMP280;69558;39.208;-77.226;2023-06-14T11:35:05;98783.34;;;22.08
80246;BMP280;69558;39.208;-77.226;2023-06-14T11:37:32;98739.59;;;21.85
80246;BMP280;69558;39.208;-77.226;2023-06-14T11:40:01;98775.44;;;22.08
80246;BMP280;69558;39.208;-77.226;2023-06-14T11:42:30;98784.41;;;22.07
80246;BMP280;69558;39.208;-77.226;2023-06-14T11:44:56;98785.19;;;22.07
80246;BMP280;69558;39.208;-77.226;2023-06-14T11:47:23;98792.56;;;22.05
80246;BMP280;69558;39.208;-77.226;2023-06-14T11:49:49;98787.28;;;22.05
80246;BMP280;69558;39.208;-77.226;2023-06-14T11:52:16;98788.88;;;22.06
80246;BMP280;69558;39.208;-77.226;2023-06-14T11:54:42;98776.13;;;21.98
80246;BMP280;69558;39.208;-77.226;2023-06-14T11:57:08;98780.16;;;22.06
80246;BMP280;69558;39.208;-77.226;2023-06-14T11:59:40;98781.66;;;21.97
80246;BMP280;69558;39.208;-77.226;2023-06-14T12:02:07;98778.59;;;22.05
80246;BMP280;69558;39.208;-77.226;2023-06-14T12:04:33;98781.47;;;22.03
80246;BMP280;69558;39.208;-77.226;2023-06-14T12:07:13;98774.56;;;22.02
80246;BMP280;69558;39.208;-77.226;2023-06-14T12:10:03;98772.75;;;22.03
80246;BMP280;69558;39.208;-77.226;2023-06-14T12:12:36;98770.25;;;21.91
80246;BMP280;69558;39.208;-77.226;2023-06-14T12:15:04;98788.78;;;21.96
80246;BMP280;69558;39.208;-77.226;2023-06-14T12:17:36;98766.50;;;21.87
80246;BMP280;69558;39.208;-77.226;2023-06-14T12:20:11;98774.50;;;21.92
80246;BMP280;69558;39.208;-77.226;2023-06-14T12:22:53;98770.00;;;21.93
80246;BMP280;69558;39.208;-77.226;2023-06-14T12:25:35;98741.28;;;21.74
80246;BMP280;69558;39.208;-77.226;2023-06-14T12:28:09;98769.44;;;21.91
80246;BMP280;69558;39.208;-77.226;2023-06-14T12:30:36;98768.72;;;21.95
80246;BMP280;69558;39.208;-77.226;2023-06-14T12:33:03;98744.28;;;21.83
80246;BMP280;69558;39.208;-77.226;2023-06-14T12:35:29;98761.06;;;21.99
80246;BMP280;69558;39.208;-77.226;2023-06-14T12:37:56;98769.31;;;22.02
80246;BMP280;69558;39.208;-77.226;2023-06-14T12:40:22;98737.25;;;21.94
80246;BMP280;69558;39.208;-77.226;2023-06-14T12:42:47;98766.41;;;22.04
80246;BMP280;69558;39.208;-77.226;2023-06-14T12:45:15;98752.97;;;22.05
80246;BMP280;69558;39.208;-77.226;2023-06-14T12:47:41;98752.72;;;22.07
80246;BMP280;69558;39.208;-77.226;2023-06-14T12:50:08;98747.69;;;22.05
80246;BMP280;69558;39.208;-77.226;2023-06-14T12:52:34;98747.69;;;22.05
80246;BMP280;69558;39.208;-77.226;2023-06-14T12:55:04;98731.81;;;22.00
80246;BMP280;69558;39.208;-77.226;2023-06-14T12:57:30;98726.53;;;22.00
80246;BMP280;69558;39.208;-77.226;2023-06-14T12:59:55;98725.47;;;22.01
80246;BMP280;69558;39.208;-77.226;2023-06-14T13:02:21;98708.50;;;21.92
80246;BMP280;69558;39.208;-77.226;2023-06-14T13:04:49;98732.63;;;22.06
80246;BMP280;69558;39.208;-77.226;2023-06-14T13:07:15;98728.66;;;22.03
80246;BMP280;69558;39.208;-77.226;2023-06-14T13:09:42;98735.28;;;22.06
80246;BMP280;69558;39.208;-77.226;2023-06-14T13:12:10;98721.84;;;22.07
80246;BMP280;69558;39.208;-77.226;2023-06-14T13:14:40;98730.56;;;22.08
80246;BMP280;69558;39.208;-77.226;2023-06-14T13:17:10;98718.41;;;22.07
80246;BMP280;69558;39.208;-77.226;2023-06-14T13:19:37;98723.69;;;22.07
80246;BMP280;69558;39.208;-77.226;2023-06-14T13:22:03;98709.59;;;21.96
80246;BMP280;69558;39.208;-77.226;2023-06-14T13:24:29;98709.97;;;22.05
80246;BMP280;69558;39.208;-77.226;2023-06-14T13:26:56;98690.00;;;21.92
80246;BMP280;69558;39.208;-77.226;2023-06-14T13:29:23;98692.50;;;22.04
80246;BMP280;69558;39.208;-77.226;2023-06-14T13:31:49;98694.88;;;22.05
80246;BMP280;69558;39.208;-77.226;2023-06-14T13:34:15;98675.63;;;22.05
80246;BMP280;69558;39.208;-77.226;2023-06-14T13:36:42;98675.63;;;22.05
80246;BMP280;69558;39.208;-77.226;2023-06-14T13:39:08;98673.22;;;22.03
80246;BMP280;69558;39.208;-77.226;2023-06-14T13:41:36;98660.25;;;21.97
80246;BMP280;69558;39.208;-77.226;2023-06-14T13:44:02;98657.91;;;22.00
80246;BMP280;69558;39.208;-77.226;2023-06-14T13:46:31;98667.13;;;22.03
80246;BMP280;69558;39.208;-77.226;2023-06-14T13:48:57;98651.53;;;21.96
80246;BMP280;69558;39.208;-77.226;2023-06-14T13:51:23;98663.41;;;21.99
80246;BMP280;69558;39.208;-77.226;2023-06-14T13:53:50;98657.38;;;22.03
80246;BMP280;69558;39.208;-77.226;2023-06-14T13:56:17;98657.38;;;22.03
80246;BMP280;69558;39.208;-77.226;2023-06-14T13:58:43;98653.66;;;21.99
80246;BMP280;69558;39.208;-77.226;2023-06-14T14:01:10;98651.03;;;21.99
80246;BMP280;69558;39.208;-77.226;2023-06-14T14:03:37;98660.75;;;21.99
80246;BMP280;69558;39.208;-77.226;2023-06-14T14:06:04;98657.91;;;22.00
80246;BMP280;69558;39.208;-77.226;2023-06-14T14:08:30;98662.38;;;22.00
80246;BMP280;69558;39.208;-77.226;2023-06-14T14:10:57;98661.81;;;21.98